Utility, Louisiana
Current Conditions -  °F | °C
As of 7:53 AM on Saturday 20 Dec 2014 (Local Time) from KESF Reporting Station
Overcast Overcast  
Wind Chill: 45°   Ceiling: 600
Heat Index: 45°   Visibility: 10mi
Dew Point: 43°   Wind: 3mph
Humidity: 93%   Direction: NA
Pressure: 30.21"   Gusts: NA
Location:  31.5028°N, 91.9028°W
Report Text: KESF 201353Z AUTO VRB03KT 10SM OVC006 07/06 A3021 RMK AO2 SLP229 T00720061
Loading
Personal Weather Stations






























Interactive Weather Map New forecast layout! Learn more

10-Day Weather Forecast

Advertisements
Track Severe Weather on mobile